VOZ580 YPAD-YSCB
Flight info
| Callsign | VOZ580 |
|---|---|
| Flight time | N/A |
| Altitude | 37000 |
| Route | BENDO3/05 BENDO H36 NONUP J142 CB |
| Aircraft | B738/M-SAE3DGHIM1RWZ/LB1 |
Departure
| Time | 2026-05-01 08:20 |
|---|---|
| Airport | Adelaide International Airport (YPAD) |
Arrival
| Time | N/A |
|---|---|
| Airport | Canberra Airport (YSCB) |
| Time | Latitude | Longitude | Altitude | Speed | Heading |
|---|---|---|---|---|---|
| 2026-05-01 07:48 | -34.93806 | 138.54031 | 29 ft | 0 kts | 320° |
| 2026-05-01 08:12 | -34.93835 | 138.54059 | 26 ft | 4 kts | 320° |
| 2026-05-01 08:12 | -34.93855 | 138.54081 | 30 ft | 4 kts | 320° |
| 2026-05-01 08:12 | -34.93863 | 138.54088 | 28 ft | 0 kts | 320° |
| 2026-05-01 08:14 | -34.93862 | 138.54086 | 28 ft | 1 kts | 307° |
| 2026-05-01 08:14 | -34.93871 | 138.54071 | 26 ft | 6 kts | 213° |
| 2026-05-01 08:14 | -34.93925 | 138.54022 | 27 ft | 12 kts | 231° |
| 2026-05-01 08:15 | -34.93978 | 138.53941 | 27 ft | 12 kts | 230° |
| 2026-05-01 08:15 | -34.94144 | 138.53869 | 25 ft | 17 kts | 230° |
| 2026-05-01 08:15 | -34.94230 | 138.53744 | 26 ft | 21 kts | 229° |
| 2026-05-01 08:16 | -34.94325 | 138.53605 | 26 ft | 21 kts | 231° |
| 2026-05-01 08:16 | -34.94417 | 138.53470 | 25 ft | 20 kts | 229° |
| 2026-05-01 08:16 | -34.94507 | 138.53340 | 29 ft | 20 kts | 230° |
| 2026-05-01 08:16 | -34.94505 | 138.53206 | 29 ft | 16 kts | 300° |
| 2026-05-01 08:17 | -34.94449 | 138.53096 | 26 ft | 15 kts | 295° |
| 2026-05-01 08:17 | -34.94476 | 138.52976 | 25 ft | 19 kts | 222° |
| 2026-05-01 08:17 | -34.94611 | 138.52848 | 28 ft | 30 kts | 218° |
| 2026-05-01 08:17 | -34.94798 | 138.52672 | 27 ft | 38 kts | 217° |
| 2026-05-01 08:18 | -34.95006 | 138.52475 | 26 ft | 37 kts | 217° |
| 2026-05-01 08:18 | -34.95312 | 138.52200 | 26 ft | 23 kts | 198° |
| 2026-05-01 08:19 | -34.95433 | 138.52331 | 26 ft | 11 kts | 49° |
| 2026-05-01 08:19 | -34.95306 | 138.52515 | 27 ft | 59 kts | 50° |
| 2026-05-01 08:19 | -34.94897 | 138.53112 | 25 ft | 122 kts | 50° |
| 2026-05-01 08:19 | -34.94256 | 138.54051 | 177 ft | 156 kts | 45° |
| 2026-05-01 08:20 | -34.93565 | 138.55066 | 791 ft | 159 kts | 46° |
| 2026-05-01 08:20 | -34.92841 | 138.56114 | 1415 ft | 159 kts | 45° |
| 2026-05-01 08:20 | -34.92189 | 138.57133 | 2264 ft | 153 kts | 57° |
| 2026-05-01 08:20 | -34.92144 | 138.58517 | 2671 ft | 188 kts | 105° |
| 2026-05-01 08:21 | -34.92778 | 138.60062 | 2937 ft | 218 kts | 113° |
| 2026-05-01 08:21 | -34.93543 | 138.61764 | 3118 ft | 240 kts | 114° |
| 2026-05-01 08:21 | -34.94379 | 138.63607 | 3436 ft | 254 kts | 114° |
| 2026-05-01 08:21 | -34.95266 | 138.65579 | 3650 ft | 277 kts | 114° |
| 2026-05-01 08:22 | -34.96195 | 138.67667 | 4344 ft | 281 kts | 115° |
| 2026-05-01 08:22 | -34.97136 | 138.69772 | 5114 ft | 285 kts | 115° |
| 2026-05-01 08:22 | -34.98109 | 138.71904 | 5828 ft | 288 kts | 115° |
| 2026-05-01 08:22 | -34.99047 | 138.74067 | 6564 ft | 290 kts | 113° |
| 2026-05-01 08:23 | -34.99975 | 138.76265 | 7304 ft | 294 kts | 113° |
| 2026-05-01 08:23 | -35.00925 | 138.78487 | 8072 ft | 297 kts | 114° |
| 2026-05-01 08:23 | -35.01894 | 138.80733 | 8846 ft | 302 kts | 114° |
| 2026-05-01 08:23 | -35.02878 | 138.83014 | 9689 ft | 305 kts | 114° |
| 2026-05-01 08:24 | -35.03876 | 138.85325 | 10401 ft | 312 kts | 114° |
| 2026-05-01 08:24 | -35.04924 | 138.87767 | 10622 ft | 337 kts | 114° |
| 2026-05-01 08:24 | -35.06032 | 138.90351 | 11161 ft | 348 kts | 114° |
| 2026-05-01 08:24 | -35.07017 | 138.93053 | 11919 ft | 349 kts | 108° |
| 2026-05-01 08:25 | -35.07872 | 138.95845 | 12728 ft | 352 kts | 105° |
| 2026-05-01 08:25 | -35.08694 | 138.98676 | 13515 ft | 357 kts | 105° |
| 2026-05-01 08:25 | -35.09516 | 139.01517 | 14248 ft | 362 kts | 105° |
| 2026-05-01 08:25 | -35.10369 | 139.04435 | 14951 ft | 368 kts | 106° |
| 2026-05-01 08:26 | -35.11245 | 139.07399 | 15670 ft | 373 kts | 106° |
| 2026-05-01 08:26 | -35.12139 | 139.10394 | 16408 ft | 378 kts | 106° |
| 2026-05-01 08:26 | -35.13051 | 139.13433 | 17135 ft | 383 kts | 107° |
| 2026-05-01 08:26 | -35.13976 | 139.16509 | 17849 ft | 388 kts | 107° |
| 2026-05-01 08:27 | -35.14914 | 139.19629 | 18479 ft | 396 kts | 107° |
| 2026-05-01 08:27 | -35.15871 | 139.22813 | 19060 ft | 401 kts | 107° |
| 2026-05-01 08:27 | -35.16839 | 139.26034 | 19703 ft | 405 kts | 107° |
| 2026-05-01 08:27 | -35.17812 | 139.29275 | 20354 ft | 408 kts | 107° |
| 2026-05-01 08:28 | -35.18792 | 139.32545 | 21031 ft | 411 kts | 108° |
| 2026-05-01 08:28 | -35.19779 | 139.35842 | 21655 ft | 415 kts | 108° |
| 2026-05-01 08:28 | -35.20773 | 139.39169 | 22228 ft | 419 kts | 108° |
| 2026-05-01 08:28 | -35.21779 | 139.42535 | 22803 ft | 424 kts | 108° |
| 2026-05-01 08:29 | -35.22794 | 139.45939 | 23383 ft | 428 kts | 108° |
| 2026-05-01 08:29 | -35.23818 | 139.49377 | 23893 ft | 432 kts | 108° |
| 2026-05-01 08:29 | -35.24553 | 139.52930 | 24349 ft | 431 kts | 92° |
| 2026-05-01 08:29 | -35.24768 | 139.56595 | 24884 ft | 432 kts | 90° |
| 2026-05-01 08:30 | -35.24939 | 139.60221 | 25376 ft | 435 kts | 90° |
| 2026-05-01 08:30 | -35.25108 | 139.63930 | 25845 ft | 438 kts | 90° |
| 2026-05-01 08:30 | -35.25286 | 139.67668 | 26297 ft | 442 kts | 90° |
| 2026-05-01 08:30 | -35.25476 | 139.71434 | 26755 ft | 445 kts | 90° |
| 2026-05-01 08:31 | -35.25674 | 139.75218 | 27203 ft | 448 kts | 91° |
| 2026-05-01 08:31 | -35.25880 | 139.79028 | 27664 ft | 450 kts | 91° |
| 2026-05-01 08:31 | -35.26090 | 139.82869 | 28116 ft | 453 kts | 91° |
| 2026-05-01 08:31 | -35.26302 | 139.86720 | 28549 ft | 455 kts | 91° |
| 2026-05-01 08:32 | -35.26515 | 139.90602 | 28972 ft | 458 kts | 91° |
| 2026-05-01 08:32 | -35.26728 | 139.94507 | 29380 ft | 461 kts | 91° |
| 2026-05-01 08:32 | -35.26940 | 139.98434 | 29795 ft | 464 kts | 91° |
| 2026-05-01 08:32 | -35.27153 | 140.02379 | 30238 ft | 465 kts | 91° |
| 2026-05-01 08:33 | -35.27364 | 140.06326 | 30573 ft | 467 kts | 91° |
| 2026-05-01 08:33 | -35.27575 | 140.10311 | 30864 ft | 470 kts | 91° |
| 2026-05-01 08:33 | -35.27785 | 140.14316 | 31150 ft | 473 kts | 91° |
| 2026-05-01 08:33 | -35.27996 | 140.18343 | 31447 ft | 476 kts | 91° |
| 2026-05-01 08:34 | -35.28206 | 140.22385 | 31796 ft | 476 kts | 91° |
| 2026-05-01 08:34 | -35.28415 | 140.26428 | 32147 ft | 477 kts | 91° |
| 2026-05-01 08:34 | -35.28624 | 140.30496 | 32345 ft | 481 kts | 91° |
| 2026-05-01 08:35 | -35.29040 | 140.38696 | 32802 ft | 487 kts | 91° |
| 2026-05-01 08:35 | -35.29248 | 140.42827 | 33257 ft | 484 kts | 91° |
| 2026-05-01 08:35 | -35.29454 | 140.46922 | 33793 ft | 480 kts | 91° |
| 2026-05-01 08:35 | -35.29657 | 140.50996 | 34179 ft | 479 kts | 91° |
| 2026-05-01 08:36 | -35.29858 | 140.55075 | 34417 ft | 481 kts | 91° |
| 2026-05-01 08:36 | -35.30058 | 140.59174 | 34638 ft | 483 kts | 91° |
| 2026-05-01 08:36 | -35.30257 | 140.63277 | 34927 ft | 483 kts | 91° |
| 2026-05-01 08:36 | -35.30390 | 140.66043 | 35147 ft | 482 kts | 91° |
| 2026-05-01 08:37 | -35.30587 | 140.70126 | 35560 ft | 479 kts | 91° |
| 2026-05-01 08:37 | -35.30779 | 140.74145 | 35838 ft | 479 kts | 91° |
| 2026-05-01 08:37 | -35.30971 | 140.78220 | 36033 ft | 481 kts | 91° |
| 2026-05-01 08:37 | -35.31163 | 140.82318 | 36259 ft | 482 kts | 90° |
| 2026-05-01 08:38 | -35.31354 | 140.86411 | 36536 ft | 482 kts | 91° |
| 2026-05-01 08:38 | -35.31544 | 140.90514 | 36752 ft | 483 kts | 90° |
| 2026-05-01 08:38 | -35.31733 | 140.94622 | 37009 ft | 483 kts | 90° |
| 2026-05-01 08:39 | -35.32108 | 141.02869 | 37096 ft | 485 kts | 90° |
| 2026-05-01 08:39 | -35.32476 | 141.11038 | 37083 ft | 476 kts | 90° |
| 2026-05-01 08:40 | -35.33008 | 141.23121 | 37108 ft | 472 kts | 90° |
| 2026-05-01 08:40 | -35.33353 | 141.31147 | 37105 ft | 471 kts | 90° |
| 2026-05-01 08:41 | -35.33692 | 141.39156 | 37116 ft | 471 kts | 90° |
| 2026-05-01 08:41 | -35.34027 | 141.47177 | 37093 ft | 471 kts | 90° |
| 2026-05-01 08:42 | -35.34356 | 141.55197 | 37114 ft | 472 kts | 90° |
| 2026-05-01 08:42 | -35.34682 | 141.63248 | 37118 ft | 474 kts | 90° |
| 2026-05-01 08:43 | -35.35001 | 141.71272 | 37123 ft | 476 kts | 90° |
| 2026-05-01 08:43 | -35.35318 | 141.79378 | 37122 ft | 478 kts | 90° |
| 2026-05-01 08:44 | -35.35632 | 141.87519 | 37121 ft | 479 kts | 90° |
| 2026-05-01 08:44 | -35.35940 | 141.95672 | 37136 ft | 479 kts | 90° |
| 2026-05-01 08:45 | -35.36243 | 142.03840 | 37123 ft | 480 kts | 90° |
| 2026-05-01 08:45 | -35.36541 | 142.12004 | 37127 ft | 480 kts | 90° |
| 2026-05-01 08:46 | -35.36833 | 142.20160 | 37134 ft | 479 kts | 90° |
| 2026-05-01 08:46 | -35.37119 | 142.28322 | 37137 ft | 479 kts | 90° |
| 2026-05-01 08:47 | -35.37400 | 142.36488 | 37142 ft | 479 kts | 89° |
| 2026-05-01 08:47 | -35.37675 | 142.44628 | 37144 ft | 478 kts | 89° |
| 2026-05-01 08:48 | -35.37944 | 142.52766 | 37139 ft | 478 kts | 89° |
| 2026-05-01 08:48 | -35.38208 | 142.60911 | 37145 ft | 477 kts | 89° |
| 2026-05-01 08:49 | -35.38464 | 142.68977 | 37133 ft | 477 kts | 89° |
| 2026-05-01 08:49 | -35.38715 | 142.77085 | 37150 ft | 476 kts | 89° |
| 2026-05-01 08:50 | -35.38961 | 142.85192 | 37153 ft | 476 kts | 89° |
| 2026-05-01 08:50 | -35.39202 | 142.93281 | 37139 ft | 470 kts | 89° |
| 2026-05-01 08:51 | -35.39435 | 143.01266 | 37154 ft | 469 kts | 89° |
| 2026-05-01 08:51 | -35.39661 | 143.09253 | 37162 ft | 470 kts | 89° |
| 2026-05-01 08:52 | -35.39882 | 143.17269 | 37161 ft | 471 kts | 89° |
| 2026-05-01 08:52 | -35.40099 | 143.25295 | 37158 ft | 471 kts | 89° |
| 2026-05-01 08:53 | -35.40312 | 143.33333 | 37157 ft | 472 kts | 89° |
| 2026-05-01 08:53 | -35.40520 | 143.41477 | 37182 ft | 483 kts | 89° |
| 2026-05-01 08:54 | -35.40726 | 143.49725 | 37164 ft | 481 kts | 89° |
| 2026-05-01 08:54 | -35.40928 | 143.57835 | 37160 ft | 470 kts | 89° |
| 2026-05-01 08:55 | -35.41117 | 143.65797 | 37181 ft | 471 kts | 89° |
| 2026-05-01 08:55 | -35.41300 | 143.73820 | 37176 ft | 471 kts | 89° |
| 2026-05-01 08:56 | -35.41480 | 143.81861 | 37181 ft | 472 kts | 89° |
| 2026-05-01 08:56 | -35.41655 | 143.89903 | 37178 ft | 472 kts | 89° |
| 2026-05-01 08:57 | -35.41824 | 143.97960 | 37180 ft | 473 kts | 89° |
| 2026-05-01 08:57 | -35.41989 | 144.06030 | 37187 ft | 474 kts | 89° |
| 2026-05-01 08:58 | -35.42148 | 144.14110 | 37188 ft | 474 kts | 89° |
| 2026-05-01 08:58 | -35.42303 | 144.22199 | 37181 ft | 475 kts | 89° |
| 2026-05-01 08:59 | -35.42452 | 144.30293 | 37193 ft | 475 kts | 89° |
| 2026-05-01 08:59 | -35.42596 | 144.38390 | 37193 ft | 475 kts | 89° |
| 2026-05-01 09:00 | -35.42734 | 144.46481 | 37197 ft | 474 kts | 88° |
| 2026-05-01 09:00 | -35.42866 | 144.54564 | 37197 ft | 473 kts | 89° |
| 2026-05-01 09:01 | -35.42993 | 144.62630 | 37195 ft | 473 kts | 89° |
| 2026-05-01 09:01 | -35.43114 | 144.70636 | 37199 ft | 472 kts | 89° |
| 2026-05-01 09:02 | -35.43230 | 144.78691 | 37203 ft | 472 kts | 89° |
| 2026-05-01 09:02 | -35.43340 | 144.86736 | 37206 ft | 472 kts | 89° |
| 2026-05-01 09:03 | -35.43445 | 144.94772 | 37207 ft | 471 kts | 89° |
| 2026-05-01 09:03 | -35.43545 | 145.02808 | 37202 ft | 471 kts | 89° |
| 2026-05-01 09:04 | -35.43639 | 145.10848 | 37210 ft | 471 kts | 89° |
| 2026-05-01 09:04 | -35.43729 | 145.18888 | 37218 ft | 472 kts | 89° |
| 2026-05-01 09:05 | -35.43812 | 145.26931 | 37207 ft | 472 kts | 89° |
| 2026-05-01 09:05 | -35.43891 | 145.34982 | 37218 ft | 472 kts | 89° |
| 2026-05-01 09:06 | -35.43964 | 145.43050 | 37225 ft | 473 kts | 89° |
| 2026-05-01 09:06 | -35.44032 | 145.51128 | 37227 ft | 474 kts | 89° |
| 2026-05-01 09:07 | -35.44095 | 145.59219 | 37234 ft | 475 kts | 89° |
| 2026-05-01 09:07 | -35.44152 | 145.67264 | 37231 ft | 475 kts | 89° |
| 2026-05-01 09:08 | -35.44205 | 145.75372 | 37234 ft | 476 kts | 89° |
| 2026-05-01 09:08 | -35.44251 | 145.83485 | 37238 ft | 475 kts | 89° |
| 2026-05-01 09:09 | -35.44293 | 145.91589 | 37236 ft | 475 kts | 89° |
| 2026-05-01 09:09 | -35.44329 | 145.99676 | 37241 ft | 474 kts | 89° |
| 2026-05-01 09:10 | -35.44359 | 146.07755 | 37248 ft | 473 kts | 89° |
| 2026-05-01 09:10 | -35.44384 | 146.15815 | 37247 ft | 472 kts | 89° |
| 2026-05-01 09:11 | -35.44404 | 146.23853 | 37251 ft | 471 kts | 89° |
| 2026-05-01 09:11 | -35.44418 | 146.31873 | 37256 ft | 469 kts | 89° |
| 2026-05-01 09:12 | -35.44427 | 146.39868 | 37258 ft | 468 kts | 89° |
| 2026-05-01 09:12 | -35.44431 | 146.47858 | 37258 ft | 468 kts | 89° |
| 2026-05-01 09:13 | -35.44429 | 146.55839 | 37252 ft | 468 kts | 89° |
| 2026-05-01 09:13 | -35.44422 | 146.63816 | 37267 ft | 468 kts | 89° |
| 2026-05-01 09:14 | -35.44410 | 146.71751 | 37268 ft | 468 kts | 89° |
| 2026-05-01 09:14 | -35.44393 | 146.79793 | 37272 ft | 469 kts | 89° |
| 2026-05-01 09:15 | -35.44372 | 146.87740 | 37281 ft | 469 kts | 89° |
| 2026-05-01 09:15 | -35.44609 | 146.91730 | 37266 ft | 470 kts | 100° |
| 2026-05-01 09:15 | -35.45251 | 146.95656 | 37289 ft | 470 kts | 103° |
| 2026-05-01 09:16 | -35.46774 | 147.03479 | 36870 ft | 476 kts | 104° |
| 2026-05-01 09:16 | -35.47543 | 147.07413 | 36373 ft | 473 kts | 103° |
| 2026-05-01 09:17 | -35.49014 | 147.15292 | 35166 ft | 474 kts | 103° |
| 2026-05-01 09:17 | -35.49725 | 147.19247 | 34515 ft | 476 kts | 103° |
| 2026-05-01 09:17 | -35.51131 | 147.27209 | 33069 ft | 479 kts | 103° |
| 2026-05-01 09:18 | -35.51830 | 147.31202 | 32357 ft | 479 kts | 103° |
| 2026-05-01 09:18 | -35.53226 | 147.39182 | 31176 ft | 474 kts | 103° |
| 2026-05-01 09:19 | -35.54367 | 147.45723 | 30298 ft | 468 kts | 103° |
| 2026-05-01 09:19 | -35.55271 | 147.50914 | 29507 ft | 462 kts | 102° |
| 2026-05-01 09:19 | -35.55714 | 147.53459 | 29132 ft | 459 kts | 102° |
| 2026-05-01 09:20 | -35.57239 | 147.62245 | 27901 ft | 447 kts | 102° |
| 2026-05-01 09:20 | -35.58517 | 147.69644 | 26857 ft | 438 kts | 101° |
| 2026-05-01 09:21 | -35.59565 | 147.75734 | 26020 ft | 432 kts | 101° |
| 2026-05-01 09:21 | -35.60182 | 147.79328 | 25521 ft | 428 kts | 100° |
| 2026-05-01 09:21 | -35.61392 | 147.86398 | 24506 ft | 423 kts | 99° |
| 2026-05-01 09:22 | -35.62592 | 147.93436 | 23416 ft | 418 kts | 99° |
| 2026-05-01 09:22 | -35.63768 | 148.00359 | 22378 ft | 409 kts | 99° |
| 2026-05-01 09:23 | -35.64345 | 148.03767 | 21881 ft | 405 kts | 99° |
| 2026-05-01 09:23 | -35.65480 | 148.10482 | 20917 ft | 397 kts | 99° |
| 2026-05-01 09:24 | -35.66589 | 148.17073 | 19976 ft | 390 kts | 98° |
| 2026-05-01 09:24 | -35.67136 | 148.20329 | 19495 ft | 387 kts | 99° |
| 2026-05-01 09:24 | -35.68212 | 148.26755 | 18560 ft | 381 kts | 99° |
| 2026-05-01 09:25 | -35.69270 | 148.33084 | 17536 ft | 374 kts | 99° |
| 2026-05-01 09:25 | -35.70303 | 148.39302 | 16604 ft | 368 kts | 99° |
| 2026-05-01 09:26 | -35.70811 | 148.42373 | 16138 ft | 364 kts | 99° |
| 2026-05-01 09:26 | -35.71813 | 148.48430 | 15238 ft | 359 kts | 99° |
| 2026-05-01 09:26 | -35.72310 | 148.51429 | 14785 ft | 356 kts | 99° |
| 2026-05-01 09:27 | -35.73288 | 148.57375 | 13843 ft | 352 kts | 98° |
| 2026-05-01 09:27 | -35.73446 | 148.60344 | 13341 ft | 345 kts | 79° |
| 2026-05-01 09:27 | -35.72821 | 148.63161 | 12899 ft | 339 kts | 68° |
| 2026-05-01 09:28 | -35.72009 | 148.65867 | 12435 ft | 336 kts | 66° |
| 2026-05-01 09:28 | -35.71189 | 148.68506 | 11994 ft | 333 kts | 66° |
| 2026-05-01 09:28 | -35.70370 | 148.71160 | 11559 ft | 331 kts | 67° |
| 2026-05-01 09:28 | -35.69570 | 148.73802 | 11128 ft | 328 kts | 67° |
| 2026-05-01 09:29 | -35.68041 | 148.78929 | 10742 ft | 309 kts | 68° |
| 2026-05-01 09:29 | -35.67301 | 148.81410 | 10360 ft | 307 kts | 68° |
| 2026-05-01 09:30 | -35.65871 | 148.86212 | 9989 ft | 288 kts | 67° |
| 2026-05-01 09:30 | -35.65197 | 148.88471 | 9902 ft | 277 kts | 67° |
| 2026-05-01 09:30 | -35.63851 | 148.92970 | 9226 ft | 275 kts | 67° |
| 2026-05-01 09:31 | -35.63202 | 148.95139 | 9086 ft | 267 kts | 67° |
| 2026-05-01 09:31 | -35.62571 | 148.97248 | 9014 ft | 257 kts | 67° |
| 2026-05-01 09:31 | -35.61394 | 149.01180 | 8823 ft | 236 kts | 67° |
| 2026-05-01 09:32 | -35.60828 | 149.03063 | 8558 ft | 233 kts | 67° |
| 2026-05-01 09:32 | -35.59642 | 149.06972 | 7374 ft | 259 kts | 66° |
| 2026-05-01 09:32 | -35.58976 | 149.09061 | 7020 ft | 261 kts | 66° |
| 2026-05-01 09:33 | -35.58313 | 149.11123 | 6817 ft | 257 kts | 66° |
| 2026-05-01 09:33 | -35.57667 | 149.13134 | 6696 ft | 249 kts | 66° |
| 2026-05-01 09:33 | -35.56398 | 149.16949 | 6450 ft | 233 kts | 57° |
| 2026-05-01 09:34 | -35.55259 | 149.18271 | 6272 ft | 224 kts | 27° |
| 2026-05-01 09:34 | -35.53856 | 149.19082 | 6036 ft | 222 kts | 21° |
| 2026-05-01 09:34 | -35.50887 | 149.19523 | 5608 ft | 219 kts | 6° |
| 2026-05-01 09:35 | -35.49368 | 149.19695 | 5425 ft | 216 kts | 4° |